Test XHTML 1.0 Strict Page for WU-History Testing
Histórico de la Estación METEOCORUÑA
Diario Datos del Marzo 14, 2018 Unidades:  Inglés    Metrico   Ambos
« Prev Dia
Sig Dia »
Diario Semanal Mensual Anual Rango
  Max: Min: Media:
Temp: TemperatureC °F 8.7 °F 12.4 °F
Rocío: DewpointC °F -73.3 °F 6.8 °F
Humedad: Humidity % 72 % 82 %
Vel. viento: WindSpeedKMH mph 11.3 mph 31.8 mph
Racha: WindSpeedGustKMH mph - -
Viento:- - SW
Presión: PressurehPa in -3386.0 in -
Lluvia: 0.0 in    
Historical Graphs
 
 
Busqueda de Marzo 14, 2018
Hora Temp Rocío Presión Viento Vel. viento Racha Humedad Ratio lluvia (/hora) Radiación
TemperatureC °F DewpointC °F PressurehPa in Calm     Humidity % HourlyPrecipMM in SolarRadiationWatts/m^2 W/m2
00:04 13.6 °F 8.8 °F 1007.0 in SW 44.4 mph 44.4 mph 73 % 0.0 in 0.0 W/m2
00:09 13.7 °F 8.9 °F 1006.7 in SSW 53.1 mph 53.1 mph 73 % 0.0 in 0.0 W/m2
00:14 13.8 °F 9.0 °F 1007.0 in South 68.5 mph 68.5 mph 73 % 0.0 in 0.0 W/m2
00:19 13.8 °F 8.9 °F 1006.3 in SSE 35.4 mph 35.4 mph 72 % 0.0 in 0.0 W/m2
00:24 13.8 °F 9.1 °F 1006.7 in SW 50.0 mph 50.0 mph 73 % 0.0 in 0.0 W/m2
00:29 13.9 °F 9.1 °F 1006.0 in ESE 48.1 mph 48.1 mph 73 % 0.0 in 0.0 W/m2
00:34 13.8 °F 9.1 °F 1006.3 in SW 44.4 mph 44.4 mph 73 % 0.0 in 0.0 W/m2
00:39 13.8 °F 9.1 °F 1006.7 in South 24.1 mph 51.5 mph 73 % 0.0 in 0 W/m2
00:44 13.8 °F 9.2 °F 1006.3 in SSW 22.5 mph 32.2 mph 74 % 0.0 in 0 W/m2
00:49 13.8 °F 9.3 °F 1006.0 in SW 38.6 mph 38.6 mph 74 % 0.0 in 0.0 W/m2
00:54 13.8 °F 9.3 °F 1005.6 in SSE 24.1 mph 24.1 mph 74 % 0.0 in 0.0 W/m2
00:59 13.8 °F 9.2 °F 1005.6 in SW 51.5 mph 51.5 mph 74 % 0.0 in 0.0 W/m2
01:04 13.9 °F 9.3 °F 1005.3 in SSE 42.6 mph 42.6 mph 74 % 0.0 in 0.0 W/m2
01:09 13.9 °F 9.4 °F 1005.3 in SE 61.1 mph 61.1 mph 74 % 0.0 in 0.0 W/m2
01:14 13.9 °F 9.4 °F 1005.0 in SSW 48.1 mph 48.1 mph 74 % 0.0 in 0.0 W/m2
01:19 13.9 °F 9.6 °F 1005.3 in SSW 42.6 mph 42.6 mph 75 % 0.0 in 0.0 W/m2
01:24 13.8 °F 9.4 °F 1004.6 in South 35.4 mph 35.4 mph 75 % 0.0 in 0.0 W/m2
01:29 13.7 °F 9.6 °F 1004.6 in SSE 32.2 mph 32.2 mph 76 % 0.0 in 0.0 W/m2
01:34 13.7 °F 9.6 °F 1005.0 in SSE 42.6 mph 42.6 mph 76 % 0.0 in 0.0 W/m2
01:39 13.7 °F 9.6 °F 1004.6 in WSW 38.9 mph 38.9 mph 76 % 0.0 in 0.0 W/m2
01:44 13.6 °F 9.7 °F 1004.3 in South 44.4 mph 44.4 mph 77 % 0.0 in 0.0 W/m2
01:49 13.6 °F 9.6 °F 1003.9 in SSW 42.6 mph 42.6 mph 77 % 0.0 in 0.0 W/m2
01:54 13.4 °F 9.7 °F 1003.9 in SSE 38.6 mph 38.6 mph 78 % 0.0 in 0.0 W/m2
01:59 13.4 °F 9.7 °F 1003.9 in North 55.5 mph 55.5 mph 78 % 0.0 in 0.0 W/m2
02:04 13.4 °F 9.9 °F 1003.9 in South 48.3 mph 48.3 mph 79 % 0.0 in 0.0 W/m2
02:09 13.3 °F 9.8 °F 1003.6 in West 49.9 mph 49.9 mph 79 % 0.0 in 0.0 W/m2
02:14 13.2 °F 9.7 °F 1003.6 in SW 59.2 mph 59.2 mph 79 % 0.0 in 0.0 W/m2
02:19 13.1 °F 9.7 °F 1003.3 in SSW 46.7 mph 46.7 mph 80 % 0.0 in 0.0 W/m2
02:24 12.8 °F 9.6 °F 1002.9 in South 46.7 mph 46.7 mph 81 % 0.0 in 0.0 W/m2
02:29 12.7 °F 9.7 °F 1002.9 in SSW 40.2 mph 40.2 mph 82 % 0.0 in 0.0 W/m2
02:34 12.7 °F 9.8 °F 1002.6 in SSE 40.7 mph 40.7 mph 83 % 0.0 in 0.0 W/m2
02:39 12.7 °F 9.8 °F 1002.6 in SSW 44.4 mph 44.4 mph 83 % 0.0 in 0.0 W/m2
02:44 12.6 °F 10.0 °F 1002.3 in SSW 38.6 mph 38.6 mph 84 % 0.0 in 0.0 W/m2
02:46 12.7 °F 10.2 °F 1002.9 in South 24.1 mph 54.7 mph 85 % 0.0 in 0 W/m2
02:51 12.7 °F 10.2 °F 1002.9 in South 25.7 mph 43.4 mph 85 % 0.0 in 0 W/m2
02:56 12.7 °F 10.2 °F 1002.3 in South 20.9 mph 46.7 mph 85 % 0.0 in 0 W/m2
03:01 12.7 °F 10.2 °F 1002.6 in South 16.1 mph 33.8 mph 85 % 0.0 in 0 W/m2
03:06 12.7 °F 10.2 °F 1001.6 in North 31.5 mph 31.5 mph 85 % 0.0 in 0.0 W/m2
03:11 12.7 °F 10.2 °F 1001.6 in SSE 32.2 mph 32.2 mph 85 % 0.0 in 0.0 W/m2
03:16 12.8 °F 10.5 °F 1001.6 in South 53.7 mph 53.7 mph 86 % 0.0 in 0.0 W/m2
03:21 12.8 °F 10.5 °F 1001.2 in South 20.9 mph 33.8 mph 86 % 0.0 in 0 W/m2
03:26 12.8 °F 10.5 °F 1001.2 in WSW 40.7 mph 40.7 mph 86 % 0.0 in 0.0 W/m2
03:31 12.7 °F 10.6 °F 1001.2 in SSE 43.4 mph 43.4 mph 87 % 0.0 in 0.0 W/m2
03:36 12.7 °F 10.6 °F 1001.2 in South 41.8 mph 41.8 mph 87 % 0.0 in 0.0 W/m2
03:41 12.6 °F 10.7 °F 1001.2 in South 24.1 mph 38.6 mph 88 % 0.0 in 0 W/m2
03:46 12.7 °F 10.7 °F 1000.9 in SSW 31.5 mph 31.5 mph 88 % 0.0 in 0.0 W/m2
03:51 12.8 °F 10.8 °F 1000.9 in South 20.9 mph 41.8 mph 88 % 0.0 in 0 W/m2
03:56 12.9 °F 10.9 °F 1000.2 in SE 35.2 mph 35.2 mph 88 % 0.0 in 0.0 W/m2
04:01 12.9 °F 11.0 °F 1000.2 in SSE 37.0 mph 37.0 mph 88 % 0.0 in 0.0 W/m2
04:06 13.0 °F 11.1 °F 999.9 in South 35.4 mph 35.4 mph 88 % 0.0 in 0.0 W/m2
04:11 13.1 °F 11.1 °F 999.9 in SSE 35.2 mph 35.2 mph 88 % 0.0 in 0.0 W/m2
04:16 13.2 °F 11.2 °F 999.9 in South 35.2 mph 35.2 mph 88 % 0.0 in 0.0 W/m2
04:21 13.3 °F 11.3 °F 999.9 in SW 33.8 mph 33.8 mph 88 % 0.0 in 0.0 W/m2
04:26 13.4 °F 11.4 °F 999.5 in South 27.4 mph 27.4 mph 88 % 0.0 in 0.0 W/m2
04:31 13.4 °F 11.6 °F 999.2 in South 25.9 mph 25.9 mph 89 % 0.0 in 0.0 W/m2
04:36 13.3 °F 11.6 °F 999.2 in SW 20.4 mph 20.4 mph 89 % 0.0 in 0.0 W/m2
04:41 13.3 °F 11.5 °F 999.5 in South 11.3 mph 22.5 mph 89 % 0.0 in 0 W/m2
04:46 13.3 °F 11.5 °F 999.2 in SSW 18.5 mph 18.5 mph 89 % 0.0 in 0.0 W/m2
04:51 13.4 °F 11.6 °F 998.9 in SSW 29.0 mph 29.0 mph 89 % 0.0 in 0.0 W/m2
04:56 13.5 °F 11.7 °F 998.9 in South 12.9 mph 24.1 mph 89 % 0.0 in 0 W/m2
05:01 13.7 °F 11.9 °F 999.2 in SSW 12.9 mph 40.2 mph 89 % 0.0 in 0 W/m2
05:11 14.8 °F 12.1 °F 998.2 in SSW 51.8 mph 51.8 mph 84 % 0.0 in 0.0 W/m2
05:16 14.9 °F 11.8 °F 998.5 in SSW 59.2 mph 59.2 mph 82 % 0.0 in 0.0 W/m2
05:21 15.0 °F 11.8 °F 998.2 in SW 62.9 mph 62.9 mph 81 % 0.0 in 0.0 W/m2
05:26 14.9 °F 11.5 °F 997.9 in SSW 48.1 mph 48.1 mph 80 % 0.0 in 0.0 W/m2
05:31 15.1 °F 11.6 °F 997.9 in South 56.3 mph 56.3 mph 80 % 0.0 in 0.0 W/m2
05:36 15.2 °F 11.6 °F 997.9 in SSW 37.0 mph 37.0 mph 79 % 0.0 in 0.0 W/m2
05:41 15.2 °F 11.3 °F 997.9 in SW 53.1 mph 53.1 mph 78 % 0.0 in 0.0 W/m2
05:46 15.2 °F 11.2 °F 997.9 in SW 64.4 mph 64.4 mph 77 % 0.0 in 0.0 W/m2
05:51 15.3 °F 11.1 °F 997.9 in WSW 83.3 mph 83.3 mph 76 % 0.0 in 0.0 W/m2
05:56 15.2 °F 11.0 °F 997.5 in WSW 57.9 mph 57.9 mph 76 % 0.0 in 0.0 W/m2
06:01 15.2 °F 11.0 °F 997.9 in WSW 53.7 mph 53.7 mph 76 % 0.0 in 0.0 W/m2
06:06 15.2 °F 10.8 °F 997.2 in SSE 59.2 mph 59.2 mph 75 % 0.0 in 0.0 W/m2
06:11 15.1 °F 10.7 °F 997.5 in SW 59.2 mph 59.2 mph 75 % 0.0 in 0.0 W/m2
06:17 14.9 °F 10.7 °F 996.8 in West 57.9 mph 57.9 mph 76 % 0.0 in 0.0 W/m2
06:22 14.8 °F 10.6 °F 997.5 in SW 32.2 mph 40.2 mph 76 % 0.0 in 0 W/m2
06:27 14.9 °F 10.7 °F 996.8 in SW 27.4 mph 56.3 mph 76 % 0.0 in 0 W/m2
06:32 14.9 °F 10.5 °F 996.5 in SW 25.7 mph 74.0 mph 75 % 0.0 in 0 W/m2
06:37 14.8 °F 10.4 °F 996.2 in SW 24.1 mph 56.3 mph 75 % 0.0 in 0 W/m2
06:42 14.9 °F 10.5 °F 996.2 in SW 27.4 mph 56.3 mph 75 % 0.0 in 0 W/m2
06:47 14.9 °F 10.5 °F 996.2 in SSW 30.6 mph 43.4 mph 75 % 0.0 in 0 W/m2
06:52 14.8 °F 10.6 °F 996.2 in SW 27.4 mph 57.9 mph 76 % 0.0 in 0 W/m2
06:57 14.6 °F 10.8 °F 996.2 in SSW 27.4 mph 49.9 mph 78 % 0.0 in 0 W/m2
07:02 14.4 °F 11.0 °F 995.8 in SW 30.6 mph 74.0 mph 80 % 0.0 in 0 W/m2
07:07 14.3 °F 10.9 °F 995.8 in SW 29.0 mph 48.3 mph 80 % 0.0 in 0 W/m2
07:12 14.2 °F 11.0 °F 995.8 in SW 32.2 mph 51.5 mph 81 % 0.0 in 0 W/m2
07:17 14.3 °F 10.7 °F 996.2 in SSW 35.4 mph 70.8 mph 79 % 0.0 in 0 W/m2
07:22 14.3 °F 10.5 °F 995.8 in SW 38.6 mph 59.5 mph 78 % 0.0 in 0 W/m2
07:27 14.2 °F 10.4 °F 995.8 in SW 37.0 mph 70.8 mph 78 % 0.0 in 0 W/m2
07:32 14.1 °F 10.3 °F 995.5 in WSW 32.2 mph 54.7 mph 78 % 0.0 in 0 W/m2
07:37 13.9 °F 10.3 °F 995.1 in SW 29.0 mph 40.2 mph 79 % 0.0 in 0 W/m2
07:42 13.8 °F 10.4 °F 995.5 in SW 22.5 mph 54.7 mph 80 % 0.0 in 0 W/m2
07:47 13.8 °F 10.4 °F 995.5 in SW 22.5 mph 86.9 mph 80 % 0.0 in 0 W/m2
07:52 13.9 °F 10.1 °F 995.1 in SW 37.0 mph 67.6 mph 78 % 0.0 in 0 W/m2
07:57 13.8 °F 10.1 °F 994.8 in SSW 43.4 mph 51.5 mph 78 % 0.0 in 0 W/m2
08:02 13.9 °F 9.9 °F 994.8 in SSW 37.0 mph 69.2 mph 77 % 0.0 in 0 W/m2
08:07 13.8 °F 9.8 °F 995.1 in SW 29.0 mph 64.4 mph 77 % 0.0 in 5 W/m2
08:12 13.9 °F 9.9 °F 994.8 in SSW 30.6 mph 75.6 mph 77 % 0.0 in 7 W/m2
08:17 13.8 °F 10.1 °F 994.5 in SSW 38.6 mph 43.4 mph 78 % 0.0 in 9 W/m2
08:22 13.7 °F 10.1 °F 994.5 in SSW 33.8 mph 49.9 mph 79 % 0.0 in 11 W/m2
08:27 13.6 °F 10.2 °F 994.1 in SSW 22.5 mph 40.2 mph 80 % 0.0 in 16 W/m2
08:32 13.6 °F 10.4 °F 994.1 in SSW 20.9 mph 45.1 mph 81 % 0.0 in 9 W/m2
08:37 13.4 °F 10.4 °F 994.5 in South 20.9 mph 41.8 mph 82 % 0.0 in 0 W/m2
08:42 13.3 °F 10.5 °F 993.8 in SSW 22.5 mph 46.7 mph 83 % 0.0 in 9 W/m2
08:47 13.2 °F 10.4 °F 993.8 in South 20.9 mph 38.6 mph 83 % 0.0 in 16 W/m2
08:52 13.1 °F 10.4 °F 993.8 in SW 20.9 mph 45.1 mph 84 % 0.0 in 21 W/m2
08:57 13.1 °F 10.4 °F 993.5 in SSW 20.9 mph 41.8 mph 84 % 0.0 in 25 W/m2
09:02 13.2 °F 10.6 °F 993.5 in SSW 22.5 mph 41.8 mph 84 % 0.0 in 32 W/m2
09:07 13.1 °F 10.6 °F 993.5 in South 20.9 mph 35.4 mph 85 % 0.0 in 23 W/m2
09:12 13.1 °F 10.6 °F 993.1 in South 16.1 mph 25.7 mph 85 % 0.0 in 14 W/m2
09:17 13.0 °F 10.7 °F 993.1 in South 14.5 mph 33.8 mph 86 % 0.0 in 12 W/m2
09:22 12.9 °F 10.8 °F 992.8 in South 14.5 mph 45.1 mph 87 % 0.0 in 18 W/m2
09:27 13.0 °F 10.9 °F 992.8 in SSW 19.3 mph 38.6 mph 87 % 0.0 in 18 W/m2
09:32 13.0 °F 10.9 °F 992.8 in SSW 19.3 mph 38.6 mph 87 % 0.0 in 16 W/m2
09:37 13.1 °F 11.0 °F 992.4 in SSW 20.9 mph 54.7 mph 87 % 0.0 in 35 W/m2
09:42 13.1 °F 11.0 °F 992.4 in SSW 25.7 mph 38.6 mph 87 % 0.0 in 42 W/m2
09:47 13.2 °F 11.1 °F 992.1 in SW 29.0 mph 41.8 mph 87 % 0.0 in 37 W/m2
09:52 13.2 °F 11.1 °F 992.4 in SSW 27.4 mph 41.8 mph 87 % 0.0 in 33 W/m2
09:57 13.2 °F 10.9 °F 991.8 in SSW 25.7 mph 46.7 mph 86 % 0.0 in 30 W/m2
10:02 13.4 °F 11.3 °F 991.8 in SSW 25.7 mph 56.3 mph 87 % 0.0 in 23 W/m2
10:07 13.6 °F 11.3 °F 991.4 in SSW 27.4 mph 48.3 mph 86 % 0.0 in 25 W/m2
10:12 13.5 °F 11.0 °F 991.8 in SSW 30.6 mph 53.1 mph 85 % 0.0 in 21 W/m2
10:17 13.5 °F 11.2 °F 991.4 in SW 32.2 mph 62.8 mph 86 % 0.0 in 14 W/m2
10:22 13.4 °F 11.1 °F 991.8 in SW 33.8 mph 53.1 mph 86 % 0.0 in 9 W/m2
10:27 13.3 °F 11.2 °F 992.4 in SW 30.6 mph 46.7 mph 87 % 0.0 in 11 W/m2
10:32 13.2 °F 11.3 °F 991.8 in WSW 30.6 mph 56.3 mph 88 % 0.0 in 7 W/m2
10:37 13.1 °F 11.2 °F 992.1 in WSW 33.8 mph 72.4 mph 88 % 0.0 in 16 W/m2
10:42 13.1 °F 11.2 °F 992.1 in WSW 38.6 mph 56.3 mph 88 % 0.0 in 18 W/m2
10:47 12.9 °F 10.9 °F 991.8 in WSW 41.8 mph 85.3 mph 88 % 0.0 in 40 W/m2
10:52 12.8 °F 10.7 °F 992.1 in WSW 48.3 mph 86.9 mph 87 % 0.0 in 56 W/m2
10:57 12.8 °F 10.5 °F 992.1 in WSW 53.1 mph 90.1 mph 86 % 0.0 in 28 W/m2
11:02 11.5 °F 8.7 °F 992.4 in West 43.4 mph 54.7 mph 83 % 0.0 in 9 W/m2
11:07 10.0 °F 7.8 °F 992.4 in WSW 32.2 mph 57.9 mph 86 % 0.0 in 56 W/m2
11:12 9.8 °F 7.9 °F 992.1 in West 33.8 mph 69.2 mph 88 % 0.0 in 79 W/m2
11:17 9.7 °F 8.0 °F 992.8 in West 40.2 mph 57.9 mph 89 % 0.0 in 58 W/m2
11:22 9.6 °F 7.9 °F 992.8 in West 37.0 mph 49.9 mph 89 % 0.0 in 70 W/m2
11:27 9.6 °F 7.9 °F 992.8 in West 30.6 mph 41.8 mph 89 % 0.0 in 49 W/m2
11:32 9.5 °F 7.8 °F 992.4 in West 27.4 mph 57.9 mph 89 % 0.0 in 86 W/m2
11:37 9.4 °F 7.8 °F 992.8 in West 29.0 mph 54.7 mph 90 % 0.0 in 81 W/m2
11:42 9.2 °F 7.7 °F 992.4 in WSW 30.6 mph 54.7 mph 90 % 0.0 in 77 W/m2
11:47 9.2 °F 7.7 °F 992.4 in WSW 32.2 mph 53.1 mph 90 % 0.0 in 62 W/m2
11:52 9.1 °F 7.6 °F 992.1 in WSW 32.2 mph 48.3 mph 90 % 0.0 in 40 W/m2
11:57 9.1 °F 7.6 °F 992.1 in WSW 30.6 mph 41.8 mph 90 % 0.0 in 47 W/m2
12:02 9.1 °F 7.4 °F 992.1 in WSW 30.6 mph 45.1 mph 89 % 0.0 in 33 W/m2
12:07 9.1 °F 7.4 °F 991.8 in West 30.6 mph 40.2 mph 89 % 0.0 in 14 W/m2
12:12 9.1 °F 7.4 °F 992.1 in WSW 29.0 mph 43.4 mph 89 % 0.0 in 12 W/m2
12:17 8.9 °F 7.3 °F 992.1 in West 29.0 mph 38.6 mph 90 % 0.0 in 14 W/m2
12:22 8.8 °F 7.2 °F 992.4 in WSW 27.4 mph 40.2 mph 90 % 0.0 in 18 W/m2
12:27 8.8 °F 7.2 °F 992.1 in WSW 29.0 mph 43.4 mph 90 % 0.0 in 19 W/m2
12:32 8.7 °F 7.2 °F 992.1 in WSW 29.0 mph 41.8 mph 90 % 0.0 in 30 W/m2
12:37 8.7 °F 7.2 °F 991.8 in WSW 25.7 mph 32.2 mph 90 % 0.0 in 28 W/m2
12:42 8.8 °F 7.2 °F 991.8 in SW 22.5 mph 37.0 mph 90 % 0.0 in 40 W/m2
12:47 8.9 °F 7.3 °F 992.1 in SSW 22.5 mph 37.0 mph 90 % 0.0 in 47 W/m2
12:52 9.2 °F 7.5 °F 991.4 in SW 22.5 mph 37.0 mph 89 % 0.0 in 54 W/m2
12:57 9.5 °F 7.6 °F 991.4 in SSW 24.1 mph 35.4 mph 88 % 0.0 in 67 W/m2
13:02 9.6 °F 7.6 °F 991.4 in SSW 17.7 mph 35.4 mph 87 % 0.0 in 83 W/m2
13:07 9.7 °F 7.4 °F 991.4 in SSW 14.5 mph 22.5 mph 86 % 0.0 in 144 W/m2
13:12 9.9 °F 7.7 °F 991.8 in SW 14.5 mph 35.4 mph 86 % 0.0 in 139 W/m2
13:17 10.2 °F 7.8 °F 991.8 in SW 17.7 mph 32.2 mph 85 % 0.0 in 171 W/m2
13:22 10.5 °F 7.7 °F 991.8 in SSW 22.5 mph 46.7 mph 83 % 0.0 in 220 W/m2
13:27 10.7 °F 7.8 °F 991.8 in SW 24.1 mph 43.4 mph 82 % 0.0 in 264 W/m2
13:32 11.0 °F 8.2 °F 991.8 in SW 25.7 mph 35.4 mph 83 % 0.0 in 283 W/m2
13:37 11.1 °F 8.2 °F 991.8 in SW 20.9 mph 41.8 mph 82 % 0.0 in 193 W/m2
13:42 11.1 °F 8.2 °F 991.4 in SW 17.7 mph 38.6 mph 82 % 0.0 in 200 W/m2
13:47 10.9 °F 7.9 °F 991.4 in SW 20.9 mph 46.7 mph 82 % 0.0 in 172 W/m2
13:52 10.9 °F 7.9 °F 991.4 in SW 24.1 mph 46.7 mph 82 % 0.0 in 146 W/m2
13:57 10.8 °F 8.0 °F 991.4 in SW 24.1 mph 30.6 mph 83 % 0.0 in 171 W/m2
14:02 10.7 °F 8.1 °F 991.4 in SW 22.5 mph 22.5 mph 84 % 0.0 in 151 W/m2
14:07 10.6 °F 8.2 °F 991.4 in South 14.5 mph 30.6 mph 85 % 0.0 in 128 W/m2
14:12 10.4 °F 8.2 °F 991.8 in SW 14.5 mph 40.2 mph 86 % 0.0 in 77 W/m2
14:17 10.4 °F 8.2 °F 991.8 in SW 16.1 mph 32.2 mph 86 % 0.0 in 37 W/m2
14:22 10.3 °F 8.2 °F 991.8 in SW 19.3 mph 53.1 mph 87 % 0.0 in 51 W/m2
14:27 10.2 °F 8.1 °F 991.8 in WSW 25.7 mph 40.2 mph 87 % 0.0 in 76 W/m2
14:32 10.2 °F 8.1 °F 991.4 in WSW 27.4 mph 40.2 mph 87 % 0.0 in 123 W/m2
14:37 10.3 °F 8.2 °F 991.4 in WSW 25.7 mph 41.8 mph 87 % 0.0 in 227 W/m2
14:42 10.9 °F 9.2 °F 991.4 in WSW 24.1 mph 41.8 mph 89 % 0.0 in 761 W/m2
14:47 11.3 °F 9.4 °F 991.4 in WSW 22.5 mph 33.8 mph 88 % 0.0 in 515 W/m2
14:52 11.4 °F 9.3 °F 991.4 in WSW 22.5 mph 32.2 mph 87 % 0.0 in 262 W/m2
14:57 11.5 °F 9.2 °F 991.4 in WSW 22.5 mph 33.8 mph 86 % 0.0 in 243 W/m2
15:02 11.6 °F 8.8 °F 991.1 in West 20.9 mph 56.3 mph 83 % 0.0 in 380 W/m2
16:27 13.3 °F 8.6 °F 991.1 in WSW 33.8 mph 45.1 mph 73 % 0.0 in 403 W/m2
16:32 13.1 °F 8.2 °F 991.1 in WSW 30.6 mph 43.4 mph 72 % 0.0 in 79 W/m2
16:37 12.7 °F 8.0 °F 991.1 in WSW 25.7 mph 69.2 mph 73 % 0.0 in 172 W/m2
16:42 12.6 °F 8.1 °F 991.4 in WSW 32.2 mph 53.1 mph 74 % 0.0 in 163 W/m2
16:47 12.4 °F 7.9 °F 991.4 in West 33.8 mph 59.5 mph 74 % 0.0 in 118 W/m2
16:52 12.3 °F 8.2 °F 991.1 in West 35.4 mph 43.4 mph 76 % 0.0 in 118 W/m2
16:57 12.3 °F 8.2 °F 991.1 in West 33.8 mph 46.7 mph 76 % 0.0 in 56 W/m2
17:02 12.3 °F 8.2 °F 991.1 in WSW 30.6 mph 45.1 mph 76 % 0.0 in 70 W/m2
17:07 12.3 °F 8.4 °F 991.4 in WSW 32.2 mph 61.1 mph 77 % 0.0 in 97 W/m2
17:12 12.2 °F 8.3 °F 991.4 in West 33.8 mph 51.5 mph 77 % 0.0 in 81 W/m2
17:17 12.1 °F 8.4 °F 991.4 in West 33.8 mph 53.1 mph 78 % 0.0 in 93 W/m2
17:22 12.0 °F 8.4 °F 991.1 in West 30.6 mph 35.4 mph 79 % 0.0 in 139 W/m2
17:27 11.9 °F 8.6 °F 991.1 in West 22.5 mph 30.6 mph 80 % 0.0 in 81 W/m2
18:27 12.8 °F -73.3 °F -3386.0 in WSW 24.1 mph 54.7 mph 76 % 0.0 in 97 W/m2
18:32 12.7 °F 8.6 °F 991.1 in WSW 25.7 mph 33.8 mph 76 % 0.0 in 49 W/m2
18:47 12.2 °F -73.3 °F -3386.0 in West 16.1 mph 35.4 mph 76 % 0.0 in 54 W/m2
18:52 12.2 °F -73.3 °F -3386.0 in WSW 11.3 mph 33.8 mph 76 % 0.0 in 51 W/m2
18:57 12.2 °F -73.3 °F -3386.0 in WSW 14.5 mph 32.2 mph 76 % 0.0 in 44 W/m2
19:02 12.2 °F -73.3 °F -3386.0 in West 25.7 mph 35.4 mph 75 % 0.0 in 26 W/m2
19:57 11.6 °F 7.3 °F 991.8 in WSW 22.5 mph 43.4 mph 75 % 0.0 in 0 W/m2
20:07 11.5 °F 7.6 °F 991.4 in WSW 27.4 mph 37.0 mph 77 % 0.0 in 0 W/m2
20:27 11.1 °F 7.2 °F 991.4 in WSW 22.5 mph 30.6 mph 77 % 0.0 in 0 W/m2
20:32 11.0 °F 7.3 °F 991.4 in WSW 22.5 mph 37.0 mph 78 % 0.0 in 0 W/m2
20:37 11.0 °F 7.3 °F 991.4 in SW 24.1 mph 32.2 mph 78 % 0.0 in 0 W/m2
20:42 10.9 °F 7.2 °F 991.4 in SW 20.9 mph 25.7 mph 78 % 0.0 in 0 W/m2
21:12 10.7 °F 7.2 °F 991.1 in WSW 17.7 mph 38.6 mph 79 % 0.0 in 0 W/m2
21:27 10.6 °F -73.3 °F -3386.0 in SW 14.5 mph 43.4 mph 79 % 0.0 in 0 W/m2
22:07 10.0 °F 6.9 °F 991.1 in WSW 24.1 mph 35.4 mph 81 % 0.0 in 0 W/m2
22:42 10.3 °F 6.8 °F 991.1 in WSW 30.6 mph 51.5 mph 79 % 0.0 in 0 W/m2
23:07 10.0 °F -73.3 °F -3386.0 in West 46.7 mph 53.1 mph 80 % 0.0 in 0 W/m2
23:12 9.8 °F 6.5 °F 991.1 in WSW 32.2 mph 54.7 mph 80 % 0.0 in 0 W/m2
23:17 9.7 °F 6.4 °F 991.1 in WSW 37.0 mph 51.5 mph 80 % 0.0 in 0 W/m2
23:27 9.6 °F 6.3 °F 991.1 in WSW 30.6 mph 40.2 mph 80 % 0.0 in 0 W/m2
23:47 9.9 °F 6.8 °F 991.4 in WSW 27.4 mph 61.1 mph 81 % 0.0 in 0 W/m2
Meteocoruña
Agradecimientos a Weather Underground - 3 mb